sensor_id;sensor_type;location;lat;lon;timestamp;P1;P2;P0
77413;PMS7003;66486;49.992;19.164;2023-12-29T00:01:11;55.20;48.40;28.00
77413;PMS7003;66486;49.992;19.164;2023-12-29T00:03:40;54.40;48.20;30.00
77413;PMS7003;66486;49.992;19.164;2023-12-29T00:06:07;40.80;36.00;20.40
77413;PMS7003;66486;49.992;19.164;2023-12-29T00:08:33;47.20;42.80;25.20
77413;PMS7003;66486;49.992;19.164;2023-12-29T00:10:59;57.20;49.00;30.00
77413;PMS7003;66486;49.992;19.164;2023-12-29T00:13:26;44.80;42.00;28.60
77413;PMS7003;66486;49.992;19.164;2023-12-29T00:15:53;45.20;44.60;30.00
77413;PMS7003;66486;49.992;19.164;2023-12-29T00:18:21;63.00;50.00;29.00
77413;PMS7003;66486;49.992;19.164;2023-12-29T00:20:49;35.80;33.60;24.00
77413;PMS7003;66486;49.992;19.164;2023-12-29T00:23:15;64.20;51.80;31.00
77413;PMS7003;66486;49.992;19.164;2023-12-29T00:25:41;53.80;46.20;28.00
77413;PMS7003;66486;49.992;19.164;2023-12-29T00:28:08;55.60;49.80;30.80
77413;PMS7003;66486;49.992;19.164;2023-12-29T00:30:38;50.00;45.00;21.20
77413;PMS7003;66486;49.992;19.164;2023-12-29T00:33:05;51.00;45.40;28.20
77413;PMS7003;66486;49.992;19.164;2023-12-29T00:35:31;53.20;48.00;30.20
77413;PMS7003;66486;49.992;19.164;2023-12-29T00:38:00;53.40;49.00;30.20
77413;PMS7003;66486;49.992;19.164;2023-12-29T00:40:33;46.20;43.40;25.80
77413;PMS7003;66486;49.992;19.164;2023-12-29T00:43:01;66.80;54.00;28.40
77413;PMS7003;66486;49.992;19.164;2023-12-29T00:45:28;51.60;41.80;32.20
77413;PMS7003;66486;49.992;19.164;2023-12-29T00:48:01;52.20;48.40;33.00
77413;PMS7003;66486;49.992;19.164;2023-12-29T00:50:28;52.00;48.00;30.00
77413;PMS7003;66486;49.992;19.164;2023-12-29T00:52:54;53.80;46.40;24.80
77413;PMS7003;66486;49.992;19.164;2023-12-29T00:55:21;71.80;53.60;31.00
77413;PMS7003;66486;49.992;19.164;2023-12-29T00:57:47;58.40;49.40;32.60
77413;PMS7003;66486;49.992;19.164;2023-12-29T01:00:14;53.20;46.60;27.60
77413;PMS7003;66486;49.992;19.164;2023-12-29T01:02:40;53.00;48.60;31.00
77413;PMS7003;66486;49.992;19.164;2023-12-29T01:05:07;69.20;54.60;33.00
77413;PMS7003;66486;49.992;19.164;2023-12-29T01:07:33;67.40;57.00;33.60
77413;PMS7003;66486;49.992;19.164;2023-12-29T01:10:02;67.20;56.00;30.00
77413;PMS7003;66486;49.992;19.164;2023-12-29T01:12:29;66.60;54.00;34.00
77413;PMS7003;66486;49.992;19.164;2023-12-29T01:14:55;65.00;52.60;33.20
77413;PMS7003;66486;49.992;19.164;2023-12-29T01:17:21;66.80;57.60;33.00
77413;PMS7003;66486;49.992;19.164;2023-12-29T01:19:54;82.80;64.60;36.00
77413;PMS7003;66486;49.992;19.164;2023-12-29T01:22:23;69.80;54.80;31.60
77413;PMS7003;66486;49.992;19.164;2023-12-29T01:24:51;58.40;48.60;27.60
77413;PMS7003;66486;49.992;19.164;2023-12-29T01:27:17;66.00;53.40;34.00
77413;PMS7003;66486;49.992;19.164;2023-12-29T01:29:44;57.20;48.60;30.00
77413;PMS7003;66486;49.992;19.164;2023-12-29T01:32:10;50.80;45.00;25.80
77413;PMS7003;66486;49.992;19.164;2023-12-29T01:34:37;49.20;45.40;29.60
77413;PMS7003;66486;49.992;19.164;2023-12-29T01:37:04;45.20;42.60;29.20
77413;PMS7003;66486;49.992;19.164;2023-12-29T01:39:33;42.20;40.20;25.80
77413;PMS7003;66486;49.992;19.164;2023-12-29T01:42:03;53.20;46.80;27.80
77413;PMS7003;66486;49.992;19.164;2023-12-29T01:44:30;48.80;46.80;27.60
77413;PMS7003;66486;49.992;19.164;2023-12-29T01:47:00;44.80;41.80;25.20
77413;PMS7003;66486;49.992;19.164;2023-12-29T01:49:36;49.40;40.40;22.40
77413;PMS7003;66486;49.992;19.164;2023-12-29T01:52:04;34.40;31.00;19.40
77413;PMS7003;66486;49.992;19.164;2023-12-29T01:54:32;40.40;40.00;25.80
77413;PMS7003;66486;49.992;19.164;2023-12-29T01:57:03;29.60;26.20;17.20
77413;PMS7003;66486;49.992;19.164;2023-12-29T01:59:37;26.80;23.60;16.00
77413;PMS7003;66486;49.992;19.164;2023-12-29T02:02:04;26.40;24.40;14.60
77413;PMS7003;66486;49.992;19.164;2023-12-29T02:04:32;15.00;14.60;9.60
77413;PMS7003;66486;49.992;19.164;2023-12-29T02:06:59;15.20;14.20;13.00
77413;PMS7003;66486;49.992;19.164;2023-12-29T02:09:25;24.40;23.20;14.80
77413;PMS7003;66486;49.992;19.164;2023-12-29T02:11:52;21.80;21.40;13.60
77413;PMS7003;66486;49.992;19.164;2023-12-29T02:14:19;24.60;23.40;15.80
77413;PMS7003;66486;49.992;19.164;2023-12-29T02:17:10;26.40;22.00;15.00
77413;PMS7003;66486;49.992;19.164;2023-12-29T02:19:42;24.20;24.00;16.40
77413;PMS7003;66486;49.992;19.164;2023-12-29T02:22:10;24.20;24.20;18.00
77413;PMS7003;66486;49.992;19.164;2023-12-29T02:24:37;21.20;20.60;13.40
77413;PMS7003;66486;49.992;19.164;2023-12-29T02:27:25;22.40;21.00;13.80
77413;PMS7003;66486;49.992;19.164;2023-12-29T02:30:18;20.00;20.00;14.20
77413;PMS7003;66486;49.992;19.164;2023-12-29T02:33:10;30.20;25.00;16.40
77413;PMS7003;66486;49.992;19.164;2023-12-29T02:35:39;20.60;20.60;15.40
77413;PMS7003;66486;49.992;19.164;2023-12-29T02:38:08;24.80;22.80;15.00
77413;PMS7003;66486;49.992;19.164;2023-12-29T02:40:38;18.60;17.80;12.40
77413;PMS7003;66486;49.992;19.164;2023-12-29T02:43:05;18.20;18.20;12.60
77413;PMS7003;66486;49.992;19.164;2023-12-29T02:45:31;17.80;17.60;13.00
77413;PMS7003;66486;49.992;19.164;2023-12-29T02:47:57;10.50;9.25;7.00
77413;PMS7003;66486;49.992;19.164;2023-12-29T02:50:23;15.00;14.60;10.00
77413;PMS7003;66486;49.992;19.164;2023-12-29T02:52:49;17.20;17.20;10.80
77413;PMS7003;66486;49.992;19.164;2023-12-29T02:55:16;16.00;15.80;9.80
77413;PMS7003;66486;49.992;19.164;2023-12-29T02:57:42;17.20;16.80;12.00
77413;PMS7003;66486;49.992;19.164;2023-12-29T03:00:08;21.60;19.80;13.00
77413;PMS7003;66486;49.992;19.164;2023-12-29T03:02:37;16.40;14.20;11.80
77413;PMS7003;66486;49.992;19.164;2023-12-29T03:05:03;15.60;15.60;12.60
77413;PMS7003;66486;49.992;19.164;2023-12-29T03:07:30;21.40;19.80;15.00
77413;PMS7003;66486;49.992;19.164;2023-12-29T03:09:56;17.80;13.40;9.40
77413;PMS7003;66486;49.992;19.164;2023-12-29T03:12:22;13.40;13.40;10.00
77413;PMS7003;66486;49.992;19.164;2023-12-29T03:14:49;14.40;13.80;10.80
77413;PMS7003;66486;49.992;19.164;2023-12-29T03:17:15;14.80;13.40;8.80
77413;PMS7003;66486;49.992;19.164;2023-12-29T03:19:42;19.20;17.80;13.00
77413;PMS7003;66486;49.992;19.164;2023-12-29T03:22:08;21.25;19.50;12.00
77413;PMS7003;66486;49.992;19.164;2023-12-29T03:24:34;17.20;16.00;11.20
77413;PMS7003;66486;49.992;19.164;2023-12-29T03:27:00;15.80;12.80;8.60
77413;PMS7003;66486;49.992;19.164;2023-12-29T03:29:27;13.20;12.80;9.80
77413;PMS7003;66486;49.992;19.164;2023-12-29T03:31:53;14.00;13.00;10.00
77413;PMS7003;66486;49.992;19.164;2023-12-29T03:34:19;16.40;16.40;12.20
77413;PMS7003;66486;49.992;19.164;2023-12-29T03:36:45;12.00;12.00;9.00
77413;PMS7003;66486;49.992;19.164;2023-12-29T03:39:11;15.80;15.00;12.00
77413;PMS7003;66486;49.992;19.164;2023-12-29T03:41:38;15.40;14.60;9.40
77413;PMS7003;66486;49.992;19.164;2023-12-29T03:44:04;18.00;15.60;10.80
77413;PMS7003;66486;49.992;19.164;2023-12-29T03:46:31;15.00;15.00;10.00
77413;PMS7003;66486;49.992;19.164;2023-12-29T03:48:58;12.20;12.20;9.20
77413;PMS7003;66486;49.992;19.164;2023-12-29T03:51:25;10.00;10.00;8.20
77413;PMS7003;66486;49.992;19.164;2023-12-29T03:53:51;9.40;9.40;6.40
77413;PMS7003;66486;49.992;19.164;2023-12-29T03:56:18;12.20;12.20;9.00
77413;PMS7003;66486;49.992;19.164;2023-12-29T03:58:45;9.40;9.40;6.80
77413;PMS7003;66486;49.992;19.164;2023-12-29T04:01:12;9.60;9.60;7.00
77413;PMS7003;66486;49.992;19.164;2023-12-29T04:03:39;11.60;11.20;7.00
77413;PMS7003;66486;49.992;19.164;2023-12-29T04:06:09;12.60;12.00;7.80
77413;PMS7003;66486;49.992;19.164;2023-12-29T04:08:39;6.20;4.80;3.80
77413;PMS7003;66486;49.992;19.164;2023-12-29T04:11:05;9.00;8.60;6.00
77413;PMS7003;66486;49.992;19.164;2023-12-29T04:13:32;10.00;9.40;7.00
77413;PMS7003;66486;49.992;19.164;2023-12-29T04:15:58;11.60;11.60;8.20
77413;PMS7003;66486;49.992;19.164;2023-12-29T04:18:26;12.20;12.20;8.60
77413;PMS7003;66486;49.992;19.164;2023-12-29T04:20:52;12.00;10.00;6.80
77413;PMS7003;66486;49.992;19.164;2023-12-29T04:23:18;9.40;9.40;6.60
77413;PMS7003;66486;49.992;19.164;2023-12-29T04:25:44;7.00;7.00;6.20
77413;PMS7003;66486;49.992;19.164;2023-12-29T04:28:11;7.80;7.00;5.60
77413;PMS7003;66486;49.992;19.164;2023-12-29T04:30:37;8.60;7.80;6.40
77413;PMS7003;66486;49.992;19.164;2023-12-29T04:33:03;14.20;12.20;9.00
77413;PMS7003;66486;49.992;19.164;2023-12-29T04:35:30;17.60;16.60;11.60
77413;PMS7003;66486;49.992;19.164;2023-12-29T04:37:56;24.20;21.80;12.00
77413;PMS7003;66486;49.992;19.164;2023-12-29T04:40:22;29.60;26.60;17.60
77413;PMS7003;66486;49.992;19.164;2023-12-29T04:42:48;43.40;38.60;21.60
77413;PMS7003;66486;49.992;19.164;2023-12-29T04:45:14;53.40;46.00;28.80
77413;PMS7003;66486;49.992;19.164;2023-12-29T04:47:41;32.20;30.80;18.80
77413;PMS7003;66486;49.992;19.164;2023-12-29T04:50:07;24.00;23.40;14.80
77413;PMS7003;66486;49.992;19.164;2023-12-29T04:52:34;24.20;20.60;13.00
77413;PMS7003;66486;49.992;19.164;2023-12-29T04:55:00;19.80;15.40;10.00
77413;PMS7003;66486;49.992;19.164;2023-12-29T04:57:26;10.80;10.00;9.00
77413;PMS7003;66486;49.992;19.164;2023-12-29T04:59:53;9.80;8.20;6.20
77413;PMS7003;66486;49.992;19.164;2023-12-29T05:02:19;7.00;7.00;6.00
77413;PMS7003;66486;49.992;19.164;2023-12-29T05:04:45;8.60;8.60;5.20
77413;PMS7003;66486;49.992;19.164;2023-12-29T05:07:12;7.00;7.00;4.00
77413;PMS7003;66486;49.992;19.164;2023-12-29T05:09:38;11.20;10.00;6.00
77413;PMS7003;66486;49.992;19.164;2023-12-29T05:12:05;12.80;12.80;9.60
77413;PMS7003;66486;49.992;19.164;2023-12-29T05:14:31;12.60;11.20;9.00
77413;PMS7003;66486;49.992;19.164;2023-12-29T05:16:58;10.60;9.60;7.40
77413;PMS7003;66486;49.992;19.164;2023-12-29T05:19:24;7.00;6.00;3.25
77413;PMS7003;66486;49.992;19.164;2023-12-29T05:21:50;38.40;35.00;18.00
77413;PMS7003;66486;49.992;19.164;2023-12-29T05:24:17;10.80;10.80;7.40
77413;PMS7003;66486;49.992;19.164;2023-12-29T05:26:43;7.00;7.00;5.20
77413;PMS7003;66486;49.992;19.164;2023-12-29T05:29:13;7.00;7.00;6.80
77413;PMS7003;66486;49.992;19.164;2023-12-29T05:31:40;7.80;7.80;4.00
77413;PMS7003;66486;49.992;19.164;2023-12-29T05:34:06;9.20;9.20;6.00
77413;PMS7003;66486;49.992;19.164;2023-12-29T05:36:36;10.40;9.80;7.00
77413;PMS7003;66486;49.992;19.164;2023-12-29T05:39:05;7.00;7.00;6.00
77413;PMS7003;66486;49.992;19.164;2023-12-29T05:41:32;8.60;7.00;4.00
77413;PMS7003;66486;49.992;19.164;2023-12-29T05:43:58;5.80;4.80;3.60
77413;PMS7003;66486;49.992;19.164;2023-12-29T05:46:24;9.00;7.40;5.20
77413;PMS7003;66486;49.992;19.164;2023-12-29T05:48:51;7.80;7.00;6.40
77413;PMS7003;66486;49.992;19.164;2023-12-29T05:51:18;6.00;6.00;4.00
77413;PMS7003;66486;49.992;19.164;2023-12-29T05:53:44;5.80;4.80;3.80
77413;PMS7003;66486;49.992;19.164;2023-12-29T05:56:11;6.20;6.20;4.00
77413;PMS7003;66486;49.992;19.164;2023-12-29T05:58:40;11.20;9.80;6.60
77413;PMS7003;66486;49.992;19.164;2023-12-29T06:01:10;7.00;7.00;6.00
77413;PMS7003;66486;49.992;19.164;2023-12-29T06:03:36;9.00;8.60;6.80
77413;PMS7003;66486;49.992;19.164;2023-12-29T06:06:03;4.80;4.80;3.80
77413;PMS7003;66486;49.992;19.164;2023-12-29T06:08:35;7.00;7.00;6.00
77413;PMS7003;66486;49.992;19.164;2023-12-29T06:11:03;6.20;6.20;4.00
77413;PMS7003;66486;49.992;19.164;2023-12-29T06:13:29;6.00;6.00;4.00
77413;PMS7003;66486;49.992;19.164;2023-12-29T06:15:57;6.40;6.20;5.20
77413;PMS7003;66486;49.992;19.164;2023-12-29T06:18:23;7.00;7.00;6.00
77413;PMS7003;66486;49.992;19.164;2023-12-29T06:20:49;10.80;9.60;7.00
77413;PMS7003;66486;49.992;19.164;2023-12-29T06:23:15;8.20;8.20;6.00
77413;PMS7003;66486;49.992;19.164;2023-12-29T06:25:43;10.40;9.20;6.80
77413;PMS7003;66486;49.992;19.164;2023-12-29T06:28:10;8.80;8.60;7.00
77413;PMS7003;66486;49.992;19.164;2023-12-29T06:30:39;7.00;7.00;6.00
77413;PMS7003;66486;49.992;19.164;2023-12-29T06:33:05;9.60;9.40;7.40
77413;PMS7003;66486;49.992;19.164;2023-12-29T06:35:37;11.60;11.20;8.60
77413;PMS7003;66486;49.992;19.164;2023-12-29T06:38:04;12.40;12.40;9.80
77413;PMS7003;66486;49.992;19.164;2023-12-29T06:40:33;10.40;10.00;9.00
77413;PMS7003;66486;49.992;19.164;2023-12-29T06:42:59;9.80;9.80;6.20
77413;PMS7003;66486;49.992;19.164;2023-12-29T06:45:26;9.20;9.20;6.60
77413;PMS7003;66486;49.992;19.164;2023-12-29T06:47:53;6.60;6.60;4.00
77413;PMS7003;66486;49.992;19.164;2023-12-29T06:50:19;12.20;11.20;7.40
77413;PMS7003;66486;49.992;19.164;2023-12-29T06:52:45;10.00;9.25;6.50
77413;PMS7003;66486;49.992;19.164;2023-12-29T06:55:11;12.80;12.60;9.80
77413;PMS7003;66486;49.992;19.164;2023-12-29T06:57:46;9.20;9.20;6.20
77413;PMS7003;66486;49.992;19.164;2023-12-29T07:00:15;10.80;10.00;7.00
77413;PMS7003;66486;49.992;19.164;2023-12-29T07:02:44;4.40;4.40;3.60
77413;PMS7003;66486;49.992;19.164;2023-12-29T07:05:14;6.40;6.40;6.00
77413;PMS7003;66486;49.992;19.164;2023-12-29T07:07:46;6.40;5.40;3.60
77413;PMS7003;66486;49.992;19.164;2023-12-29T07:10:13;8.40;8.00;5.20
77413;PMS7003;66486;49.992;19.164;2023-12-29T07:12:42;4.80;3.40;2.20
77413;PMS7003;66486;49.992;19.164;2023-12-29T07:15:11;4.40;3.60;3.20
77413;PMS7003;66486;49.992;19.164;2023-12-29T07:17:43;6.00;6.00;5.20
77413;PMS7003;66486;49.992;19.164;2023-12-29T07:20:09;6.60;5.60;4.00
77413;PMS7003;66486;49.992;19.164;2023-12-29T07:22:41;8.80;8.80;6.80
77413;PMS7003;66486;49.992;19.164;2023-12-29T07:25:09;6.40;6.40;4.80
77413;PMS7003;66486;49.992;19.164;2023-12-29T07:27:39;6.40;6.40;4.00
77413;PMS7003;66486;49.992;19.164;2023-12-29T07:30:17;6.00;6.00;5.60
77413;PMS7003;66486;49.992;19.164;2023-12-29T07:32:44;4.00;4.00;4.00
77413;PMS7003;66486;49.992;19.164;2023-12-29T07:35:24;7.00;7.00;6.00
77413;PMS7003;66486;49.992;19.164;2023-12-29T07:37:53;6.00;4.40;4.00
77413;PMS7003;66486;49.992;19.164;2023-12-29T07:40:23;9.60;8.60;5.60
77413;PMS7003;66486;49.992;19.164;2023-12-29T07:42:50;10.00;9.00;7.00
77413;PMS7003;66486;49.992;19.164;2023-12-29T07:45:20;8.60;8.60;6.40
77413;PMS7003;66486;49.992;19.164;2023-12-29T07:47:46;9.00;9.00;7.00
77413;PMS7003;66486;49.992;19.164;2023-12-29T07:50:13;5.60;4.00;3.00
77413;PMS7003;66486;49.992;19.164;2023-12-29T07:52:39;2.60;2.60;1.00
77413;PMS7003;66486;49.992;19.164;2023-12-29T07:55:08;10.00;9.40;6.60
77413;PMS7003;66486;49.992;19.164;2023-12-29T07:57:37;6.40;5.60;4.00
77413;PMS7003;66486;49.992;19.164;2023-12-29T08:00:04;6.80;6.80;4.00
77413;PMS7003;66486;49.992;19.164;2023-12-29T08:02:32;9.00;9.00;6.80
77413;PMS7003;66486;49.992;19.164;2023-12-29T08:04:59;4.80;4.80;4.00
77413;PMS7003;66486;49.992;19.164;2023-12-29T08:07:26;6.40;6.40;5.20
77413;PMS7003;66486;49.992;19.164;2023-12-29T08:09:54;6.00;4.00;3.00
77413;PMS7003;66486;49.992;19.164;2023-12-29T08:12:20;5.50;4.00;3.75
77413;PMS7003;66486;49.992;19.164;2023-12-29T08:14:46;4.00;4.00;3.60
77413;PMS7003;66486;49.992;19.164;2023-12-29T08:17:12;6.80;6.20;4.40
77413;PMS7003;66486;49.992;19.164;2023-12-29T08:19:47;6.60;6.60;4.40
77413;PMS7003;66486;49.992;19.164;2023-12-29T08:22:19;9.20;6.60;3.80
77413;PMS7003;66486;49.992;19.164;2023-12-29T08:24:47;4.00;4.00;3.60
77413;PMS7003;66486;49.992;19.164;2023-12-29T08:27:14;3.20;3.20;3.00
77413;PMS7003;66486;49.992;19.164;2023-12-29T08:29:53;4.00;4.00;3.00
77413;PMS7003;66486;49.992;19.164;2023-12-29T08:32:25;3.80;3.80;3.00
77413;PMS7003;66486;49.992;19.164;2023-12-29T08:35:02;7.80;6.00;4.00
77413;PMS7003;66486;49.992;19.164;2023-12-29T08:37:37;6.60;6.60;5.80
77413;PMS7003;66486;49.992;19.164;2023-12-29T08:40:06;6.00;5.60;3.80
77413;PMS7003;66486;49.992;19.164;2023-12-29T08:42:50;7.80;6.00;4.40
77413;PMS7003;66486;49.992;19.164;2023-12-29T08:45:40;4.00;4.00;3.40
77413;PMS7003;66486;49.992;19.164;2023-12-29T08:48:06;4.80;4.00;3.40
77413;PMS7003;66486;49.992;19.164;2023-12-29T08:50:33;1.40;1.40;1.00
77413;PMS7003;66486;49.992;19.164;2023-12-29T08:52:59;3.80;3.60;3.00
77413;PMS7003;66486;49.992;19.164;2023-12-29T08:55:31;4.40;3.80;3.00
77413;PMS7003;66486;49.992;19.164;2023-12-29T08:58:00;1.00;1.00;0.60
77413;PMS7003;66486;49.992;19.164;2023-12-29T09:00:33;7.00;7.00;4.80
77413;PMS7003;66486;49.992;19.164;2023-12-29T09:03:02;5.20;4.00;3.00
77413;PMS7003;66486;49.992;19.164;2023-12-29T09:05:35;6.00;6.00;4.00
77413;PMS7003;66486;49.992;19.164;2023-12-29T09:08:05;8.80;8.80;6.60
77413;PMS7003;66486;49.992;19.164;2023-12-29T09:10:35;9.60;9.40;7.40
77413;PMS7003;66486;49.992;19.164;2023-12-29T09:13:01;11.00;10.00;6.40
77413;PMS7003;66486;49.992;19.164;2023-12-29T09:15:30;7.00;7.00;6.00
77413;PMS7003;66486;49.992;19.164;2023-12-29T09:17:56;7.00;6.80;6.00
77413;PMS7003;66486;49.992;19.164;2023-12-29T09:20:29;3.60;3.60;3.00
77413;PMS7003;66486;49.992;19.164;2023-12-29T09:22:56;3.00;3.00;3.00
77413;PMS7003;66486;49.992;19.164;2023-12-29T09:25:24;3.20;3.20;3.00
77413;PMS7003;66486;49.992;19.164;2023-12-29T09:27:54;3.40;3.40;3.00
77413;PMS7003;66486;49.992;19.164;2023-12-29T09:30:23;2.40;2.40;2.20
77413;PMS7003;66486;49.992;19.164;2023-12-29T09:32:54;3.80;2.40;1.40
77413;PMS7003;66486;49.992;19.164;2023-12-29T09:35:23;2.20;2.20;1.00
77413;PMS7003;66486;49.992;19.164;2023-12-29T09:37:53;5.60;4.20;3.20
77413;PMS7003;66486;49.992;19.164;2023-12-29T09:40:20;5.20;4.00;4.00
77413;PMS7003;66486;49.992;19.164;2023-12-29T09:42:47;5.20;5.20;4.00
77413;PMS7003;66486;49.992;19.164;2023-12-29T09:45:14;1.80;1.80;1.20
77413;PMS7003;66486;49.992;19.164;2023-12-29T09:47:51;4.00;2.60;2.20
77413;PMS7003;66486;49.992;19.164;2023-12-29T09:50:19;2.40;2.40;1.40
77413;PMS7003;66486;49.992;19.164;2023-12-29T09:52:53;7.00;5.20;4.00
77413;PMS7003;66486;49.992;19.164;2023-12-29T09:55:23;4.00;4.00;2.40
77413;PMS7003;66486;49.992;19.164;2023-12-29T09:57:58;2.40;2.40;2.20
77413;PMS7003;66486;49.992;19.164;2023-12-29T10:00:28;5.20;4.20;3.40
77413;PMS7003;66486;49.992;19.164;2023-12-29T10:02:56;4.20;4.20;4.00
77413;PMS7003;66486;49.992;19.164;2023-12-29T10:05:27;4.00;4.00;2.80
77413;PMS7003;66486;49.992;19.164;2023-12-29T10:07:53;4.00;4.00;3.20
77413;PMS7003;66486;49.992;19.164;2023-12-29T10:10:23;3.40;2.20;1.60
77413;PMS7003;66486;49.992;19.164;2023-12-29T10:12:53;2.40;2.40;2.20
77413;PMS7003;66486;49.992;19.164;2023-12-29T10:23:50;3.60;3.60;3.60
77413;PMS7003;66486;49.992;19.164;2023-12-29T10:26:17;2.20;2.20;1.40
77413;PMS7003;66486;49.992;19.164;2023-12-29T10:28:46;2.80;1.60;1.20
77413;PMS7003;66486;49.992;19.164;2023-12-29T10:31:16;4.00;4.00;2.00
77413;PMS7003;66486;49.992;19.164;2023-12-29T10:33:42;0.20;0.00;0.00
77413;PMS7003;66486;49.992;19.164;2023-12-29T10:36:22;3.20;3.20;2.80
77413;PMS7003;66486;49.992;19.164;2023-12-29T10:38:48;2.00;2.00;1.00
77413;PMS7003;66486;49.992;19.164;2023-12-29T10:41:25;4.00;4.00;4.00
77413;PMS7003;66486;49.992;19.164;2023-12-29T10:43:54;4.00;2.20;1.60
77413;PMS7003;66486;49.992;19.164;2023-12-29T10:46:31;3.20;3.20;2.00
77413;PMS7003;66486;49.992;19.164;2023-12-29T10:49:06;2.40;2.40;2.00
77413;PMS7003;66486;49.992;19.164;2023-12-29T10:51:41;2.20;2.20;2.00
77413;PMS7003;66486;49.992;19.164;2023-12-29T10:54:19;1.00;1.00;1.00
77413;PMS7003;66486;49.992;19.164;2023-12-29T10:57:01;1.60;1.60;1.00
77413;PMS7003;66486;49.992;19.164;2023-12-29T10:59:33;4.00;1.00;1.00
77413;PMS7003;66486;49.992;19.164;2023-12-29T11:02:03;3.20;3.20;2.20
77413;PMS7003;66486;49.992;19.164;2023-12-29T11:04:30;3.20;2.00;2.00
77413;PMS7003;66486;49.992;19.164;2023-12-29T11:07:02;7.00;7.00;5.20
77413;PMS7003;66486;49.992;19.164;2023-12-29T11:09:29;5.20;4.00;2.40
77413;PMS7003;66486;49.992;19.164;2023-12-29T11:12:03;4.60;4.60;4.00
77413;PMS7003;66486;49.992;19.164;2023-12-29T11:14:39;4.00;4.00;2.00
77413;PMS7003;66486;49.992;19.164;2023-12-29T11:17:13;3.20;3.20;2.00
77413;PMS7003;66486;49.992;19.164;2023-12-29T11:19:49;4.00;4.00;2.20
77413;PMS7003;66486;49.992;19.164;2023-12-29T11:22:20;4.00;4.00;2.60
77413;PMS7003;66486;49.992;19.164;2023-12-29T11:24:50;6.20;4.00;3.60
77413;PMS7003;66486;49.992;19.164;2023-12-29T11:27:21;3.60;3.60;2.00
77413;PMS7003;66486;49.992;19.164;2023-12-29T11:30:02;6.80;6.80;4.20
77413;PMS7003;66486;49.992;19.164;2023-12-29T11:32:43;7.00;7.00;4.40
77413;PMS7003;66486;49.992;19.164;2023-12-29T11:35:22;7.00;7.00;5.20
77413;PMS7003;66486;49.992;19.164;2023-12-29T11:41:06;5.20;5.20;4.00
77413;PMS7003;66486;49.992;19.164;2023-12-29T11:43:35;5.20;5.20;4.60
77413;PMS7003;66486;49.992;19.164;2023-12-29T11:46:31;5.40;5.20;4.20
77413;PMS7003;66486;49.992;19.164;2023-12-29T11:49:15;2.80;2.80;2.20
77413;PMS7003;66486;49.992;19.164;2023-12-29T11:51:41;2.00;2.00;2.00
77413;PMS7003;66486;49.992;19.164;2023-12-29T11:54:24;2.40;2.40;2.00
77413;PMS7003;66486;49.992;19.164;2023-12-29T11:57:00;7.20;7.20;5.00
77413;PMS7003;66486;49.992;19.164;2023-12-29T11:59:46;3.60;3.60;2.20
77413;PMS7003;66486;49.992;19.164;2023-12-29T12:02:27;7.60;5.80;4.00
77413;PMS7003;66486;49.992;19.164;2023-12-29T12:04:54;3.80;3.80;2.40
77413;PMS7003;66486;49.992;19.164;2023-12-29T12:09:50;4.60;4.60;3.80
77413;PMS7003;66486;49.992;19.164;2023-12-29T12:20:26;7.40;5.20;4.20
77413;PMS7003;66486;49.992;19.164;2023-12-29T12:22:57;6.60;6.60;4.80
77413;PMS7003;66486;49.992;19.164;2023-12-29T12:25:30;1.00;1.00;1.00
77413;PMS7003;66486;49.992;19.164;2023-12-29T12:28:05;4.00;4.00;2.20
77413;PMS7003;66486;49.992;19.164;2023-12-29T12:30:42;8.40;7.00;5.20
77413;PMS7003;66486;49.992;19.164;2023-12-29T12:33:08;2.50;2.50;2.25
77413;PMS7003;66486;49.992;19.164;2023-12-29T12:35:39;2.00;2.00;1.00
77413;PMS7003;66486;49.992;19.164;2023-12-29T12:38:12;4.60;4.40;2.80
77413;PMS7003;66486;49.992;19.164;2023-12-29T12:40:50;3.20;3.20;2.00
77413;PMS7003;66486;49.992;19.164;2023-12-29T12:43:17;5.00;4.00;4.00
77413;PMS7003;66486;49.992;19.164;2023-12-29T12:45:54;5.20;5.20;4.00
77413;PMS7003;66486;49.992;19.164;2023-12-29T12:48:40;5.60;5.60;4.00
77413;PMS7003;66486;49.992;19.164;2023-12-29T12:51:09;2.20;2.20;2.20
77413;PMS7003;66486;49.992;19.164;2023-12-29T12:53:40;4.80;4.80;4.00
77413;PMS7003;66486;49.992;19.164;2023-12-29T12:56:13;2.00;2.00;1.80
77413;PMS7003;66486;49.992;19.164;2023-12-29T12:58:40;4.00;4.00;2.80
77413;PMS7003;66486;49.992;19.164;2023-12-29T13:01:06;8.20;7.80;5.20
77413;PMS7003;66486;49.992;19.164;2023-12-29T13:03:33;4.40;4.20;3.20
77413;PMS7003;66486;49.992;19.164;2023-12-29T13:06:03;7.20;7.20;6.20
77413;PMS7003;66486;49.992;19.164;2023-12-29T13:08:32;7.40;4.80;4.00
77413;PMS7003;66486;49.992;19.164;2023-12-29T13:11:02;6.20;6.20;4.40
77413;PMS7003;66486;49.992;19.164;2023-12-29T13:13:42;6.20;6.20;4.60
77413;PMS7003;66486;49.992;19.164;2023-12-29T13:16:08;6.60;5.40;4.20
77413;PMS7003;66486;49.992;19.164;2023-12-29T13:18:34;4.00;4.00;2.50
77413;PMS7003;66486;49.992;19.164;2023-12-29T13:21:02;4.40;4.40;4.00
77413;PMS7003;66486;49.992;19.164;2023-12-29T13:23:32;2.20;2.20;2.20
77413;PMS7003;66486;49.992;19.164;2023-12-29T13:25:59;3.60;3.60;2.20
77413;PMS7003;66486;49.992;19.164;2023-12-29T13:28:31;1.00;1.00;1.00
77413;PMS7003;66486;49.992;19.164;2023-12-29T13:31:04;7.00;7.00;5.20
77413;PMS7003;66486;49.992;19.164;2023-12-29T13:33:51;7.40;6.80;4.60
77413;PMS7003;66486;49.992;19.164;2023-12-29T13:39:21;8.00;6.40;4.00
77413;PMS7003;66486;49.992;19.164;2023-12-29T13:41:56;5.80;5.80;5.20
77413;PMS7003;66486;49.992;19.164;2023-12-29T13:44:28;5.20;5.20;4.00
77413;PMS7003;66486;49.992;19.164;2023-12-29T13:46:57;4.40;3.20;2.20
77413;PMS7003;66486;49.992;19.164;2023-12-29T13:49:24;6.60;6.00;4.00
77413;PMS7003;66486;49.992;19.164;2023-12-29T13:51:55;8.20;7.00;5.20
77413;PMS7003;66486;49.992;19.164;2023-12-29T13:54:30;6.80;6.80;5.40
77413;PMS7003;66486;49.992;19.164;2023-12-29T13:57:12;6.20;6.20;4.00
77413;PMS7003;66486;49.992;19.164;2023-12-29T13:59:38;4.40;4.40;3.80
77413;PMS7003;66486;49.992;19.164;2023-12-29T14:07:53;4.60;4.00;3.60
77413;PMS7003;66486;49.992;19.164;2023-12-29T14:10:29;6.20;6.20;4.00
77413;PMS7003;66486;49.992;19.164;2023-12-29T14:13:12;6.40;6.40;4.20
77413;PMS7003;66486;49.992;19.164;2023-12-29T14:15:45;6.80;6.80;5.00
77413;PMS7003;66486;49.992;19.164;2023-12-29T14:21:29;8.20;8.20;6.00
77413;PMS7003;66486;49.992;19.164;2023-12-29T14:26:30;7.60;6.60;5.60
77413;PMS7003;66486;49.992;19.164;2023-12-29T14:29:00;10.00;10.00;7.00
77413;PMS7003;66486;49.992;19.164;2023-12-29T14:31:30;8.20;8.20;7.00
77413;PMS7003;66486;49.992;19.164;2023-12-29T14:34:05;11.20;10.80;9.00
77413;PMS7003;66486;49.992;19.164;2023-12-29T14:36:35;20.40;17.00;9.80
77413;PMS7003;66486;49.992;19.164;2023-12-29T14:39:02;9.80;9.80;8.20
77413;PMS7003;66486;49.992;19.164;2023-12-29T14:41:35;13.00;13.00;10.00
77413;PMS7003;66486;49.992;19.164;2023-12-29T14:44:04;19.40;17.60;12.00
77413;PMS7003;66486;49.992;19.164;2023-12-29T14:46:30;19.00;19.00;12.00